createdAt,value
2022-11-17T00:01:32.092Z,6.40
2022-11-17T00:04:01.685Z,6.40
2022-11-17T00:06:30.160Z,6.40
2022-11-17T00:08:58.667Z,6.40
2022-11-17T00:11:47.702Z,6.40
2022-11-17T00:14:33.433Z,6.40
2022-11-17T00:17:04.207Z,6.40
2022-11-17T00:19:54.245Z,6.40
2022-11-17T00:22:22.677Z,6.40
2022-11-17T00:24:51.531Z,6.40
2022-11-17T00:27:20.791Z,6.40
2022-11-17T00:29:49.291Z,6.40
2022-11-17T00:32:36.529Z,6.40
2022-11-17T00:35:07.422Z,6.40
2022-11-17T00:37:39.312Z,6.30
2022-11-17T00:40:09.197Z,6.30
2022-11-17T00:42:37.499Z,6.30
2022-11-17T00:45:06.451Z,6.30
2022-11-17T00:47:37.587Z,6.30
2022-11-17T00:50:11.611Z,6.30
2022-11-17T00:52:39.821Z,6.30
2022-11-17T00:55:09.241Z,6.20
2022-11-17T00:57:40.710Z,6.20
2022-11-17T01:00:11.106Z,6.20
2022-11-17T01:02:39.632Z,6.20
2022-11-17T01:05:09.873Z,6.20
2022-11-17T01:07:38.145Z,6.20
2022-11-17T01:10:07.329Z,6.20
2022-11-17T01:12:36.461Z,6.20
2022-11-17T01:15:05.178Z,6.20
2022-11-17T01:17:33.638Z,6.20
2022-11-17T01:20:01.948Z,6.20
2022-11-17T01:22:31.775Z,6.20
2022-11-17T01:25:00.173Z,6.20
2022-11-17T01:27:28.363Z,6.10
2022-11-17T01:29:56.569Z,6.20
2022-11-17T01:32:24.759Z,6.10
2022-11-17T01:34:53.919Z,6.10
2022-11-17T01:37:22.205Z,6.10
2022-11-17T01:39:52.088Z,6.00
2022-11-17T01:42:22.811Z,6.10
2022-11-17T01:45:18.627Z,6.10
2022-11-17T01:47:50.636Z,6.10
2022-11-17T01:50:29.211Z,6.10
2022-11-17T01:53:00.722Z,6.10
2022-11-17T01:55:36.724Z,6.10
2022-11-17T01:58:12.046Z,6.10
2022-11-17T02:00:41.853Z,6.10
2022-11-17T02:03:10.729Z,6.10
2022-11-17T02:05:46.988Z,6.10
2022-11-17T02:08:17.055Z,6.10
2022-11-17T02:10:51.613Z,6.10
2022-11-17T02:13:21.053Z,6.10
2022-11-17T02:15:49.881Z,6.10
2022-11-17T02:18:18.886Z,6.10
2022-11-17T02:21:11.719Z,6.00
2022-11-17T02:24:34.825Z,6.00
2022-11-17T02:27:32.653Z,6.00
2022-11-17T02:30:04.626Z,6.00
2022-11-17T02:32:47.603Z,6.00
2022-11-17T02:35:23.856Z,6.00
2022-11-17T02:38:02.355Z,6.00
2022-11-17T02:40:35.726Z,5.90
2022-11-17T02:43:27.024Z,5.90
2022-11-17T02:45:59.266Z,5.90
2022-11-17T02:48:33.816Z,5.90
2022-11-17T02:51:04.101Z,5.90
2022-11-17T02:53:35.052Z,5.90
2022-11-17T02:56:03.826Z,5.80
2022-11-17T02:58:33.506Z,5.80
2022-11-17T03:01:25.678Z,5.80
2022-11-17T03:04:08.098Z,5.80
2022-11-17T03:06:46.893Z,5.80
2022-11-17T03:09:22.876Z,5.80
2022-11-17T03:11:59.933Z,5.80
2022-11-17T03:14:38.803Z,5.80
2022-11-17T03:17:14.717Z,5.80
2022-11-17T03:19:48.333Z,5.70
2022-11-17T03:22:22.497Z,5.70
2022-11-17T03:24:54.885Z,5.70
2022-11-17T03:27:30.862Z,5.70
2022-11-17T03:30:04.126Z,5.70
2022-11-17T03:32:37.464Z,5.70
2022-11-17T03:35:09.652Z,5.60
2022-11-17T03:37:43.498Z,5.50
2022-11-17T03:40:16.425Z,5.50
2022-11-17T03:42:52.577Z,5.50
2022-11-17T03:45:25.865Z,5.50
2022-11-17T03:48:01.593Z,5.40
2022-11-17T03:50:35.239Z,5.40
2022-11-17T03:53:05.761Z,5.40
2022-11-17T03:55:41.526Z,5.40
2022-11-17T03:58:15.833Z,5.40
2022-11-17T04:00:47.649Z,5.30
2022-11-17T04:03:16.684Z,5.30
2022-11-17T04:05:45.039Z,5.30
2022-11-17T04:08:13.319Z,5.30
2022-11-17T04:10:55.435Z,5.40
2022-11-17T04:13:41.402Z,5.40
2022-11-17T04:16:11.356Z,5.40
2022-11-17T04:18:40.412Z,5.40
2022-11-17T04:21:09.276Z,5.40
2022-11-17T04:23:37.976Z,5.40
2022-11-17T04:26:24.068Z,5.40
2022-11-17T04:28:52.340Z,5.40
2022-11-17T04:31:24.354Z,5.30
2022-11-17T04:33:54.261Z,5.30
2022-11-17T04:36:24.678Z,5.30
2022-11-17T04:38:54.696Z,5.40
2022-11-17T04:41:42.206Z,5.30
2022-11-17T04:44:16.823Z,5.30
2022-11-17T04:46:47.807Z,5.30
2022-11-17T04:49:17.540Z,5.30
2022-11-17T04:51:46.304Z,5.30
2022-11-17T04:54:20.214Z,5.30
2022-11-17T04:56:49.125Z,5.20
2022-11-17T04:59:17.454Z,5.20
2022-11-17T05:01:47.572Z,5.20
2022-11-17T05:04:39.363Z,5.10
2022-11-17T05:07:08.276Z,5.10
2022-11-17T05:09:37.747Z,5.00
2022-11-17T05:12:24.462Z,5.10
2022-11-17T05:14:53.213Z,5.10
2022-11-17T05:17:22.503Z,5.10
2022-11-17T05:19:51.231Z,5.10
2022-11-17T05:22:38.570Z,5.10
2022-11-17T05:25:10.687Z,5.10
2022-11-17T05:27:39.279Z,5.10
2022-11-17T05:30:09.617Z,5.10
2022-11-17T05:32:39.184Z,5.00
2022-11-17T05:35:08.570Z,5.00
2022-11-17T05:37:36.857Z,5.00
2022-11-17T05:40:05.529Z,5.00
2022-11-17T05:42:35.412Z,5.00
2022-11-17T05:45:03.767Z,5.00
2022-11-17T05:47:32.878Z,5.00
2022-11-17T05:50:02.484Z,5.00
2022-11-17T05:52:30.851Z,5.00
2022-11-17T05:54:59.092Z,4.90
2022-11-17T05:57:31.725Z,5.00
2022-11-17T06:00:05.085Z,5.00
2022-11-17T06:02:39.179Z,5.00
2022-11-17T06:05:13.255Z,5.00
2022-11-17T06:07:45.197Z,5.00
2022-11-17T06:10:14.002Z,5.00
2022-11-17T06:12:42.214Z,4.90
2022-11-17T06:15:11.248Z,4.90
2022-11-17T06:17:42.974Z,4.90
2022-11-17T06:20:17.574Z,4.90
2022-11-17T06:22:48.522Z,4.80
2022-11-17T06:25:18.248Z,4.90
2022-11-17T06:27:48.499Z,4.80
2022-11-17T06:30:20.148Z,4.80
2022-11-17T06:32:50.024Z,4.80
2022-11-17T06:35:19.738Z,4.80
2022-11-17T06:37:47.971Z,4.80
2022-11-17T06:40:18.039Z,4.80
2022-11-17T06:43:03.480Z,4.80
2022-11-17T06:45:34.437Z,4.80
2022-11-17T06:48:02.735Z,4.80
2022-11-17T06:50:32.594Z,4.80
2022-11-17T06:53:01.738Z,4.80
2022-11-17T06:55:30.482Z,4.80
2022-11-17T06:58:02.718Z,4.80
2022-11-17T07:00:31.732Z,4.80
2022-11-17T07:03:01.604Z,4.80
2022-11-17T07:05:31.854Z,4.80
2022-11-17T07:08:03.687Z,4.90
2022-11-17T07:10:33.162Z,4.90
2022-11-17T07:13:01.585Z,4.90
2022-11-17T07:15:29.860Z,4.80
2022-11-17T07:17:59.641Z,4.90
2022-11-17T07:20:27.942Z,4.90
2022-11-17T07:23:01.143Z,4.90
2022-11-17T07:25:29.504Z,5.00
2022-11-17T07:28:01.392Z,4.90
2022-11-17T07:30:29.871Z,4.90
2022-11-17T07:33:00.385Z,4.90
2022-11-17T07:35:29.627Z,4.90
2022-11-17T07:38:02.742Z,4.90
2022-11-17T07:40:31.843Z,4.90
2022-11-17T07:43:00.310Z,4.90
2022-11-17T07:45:31.774Z,4.90
2022-11-17T07:48:03.503Z,4.90
2022-11-17T07:50:32.814Z,4.90
2022-11-17T07:53:02.751Z,4.90
2022-11-17T07:55:30.904Z,4.90
2022-11-17T07:58:00.483Z,4.90
2022-11-17T08:00:31.087Z,4.90
2022-11-17T08:03:03.647Z,4.90
2022-11-17T08:05:32.254Z,4.90
2022-11-17T08:08:02.742Z,4.90
2022-11-17T08:10:31.603Z,4.90
2022-11-17T08:13:00.866Z,4.90
2022-11-17T08:15:29.578Z,5.00
2022-11-17T08:17:59.206Z,5.00
2022-11-17T08:20:29.874Z,5.00
2022-11-17T08:22:58.592Z,5.00
2022-11-17T08:25:28.857Z,5.00
2022-11-17T08:27:58.158Z,5.10
2022-11-17T08:30:28.542Z,5.10
2022-11-17T08:32:56.778Z,5.10
2022-11-17T08:35:26.824Z,5.10
2022-11-17T08:37:55.553Z,5.10
2022-11-17T08:40:24.700Z,5.10
2022-11-17T08:43:00.586Z,5.20
2022-11-17T08:45:29.633Z,5.20
2022-11-17T08:47:58.395Z,5.20
2022-11-17T08:50:26.747Z,5.20
2022-11-17T08:52:55.065Z,5.20
2022-11-17T08:55:23.489Z,5.20
2022-11-17T08:57:51.750Z,5.20
2022-11-17T09:00:22.500Z,5.20
2022-11-17T09:02:50.839Z,5.20
2022-11-17T09:05:19.075Z,5.20
2022-11-17T09:07:47.398Z,5.20
2022-11-17T09:10:15.792Z,5.20
2022-11-17T09:12:44.373Z,5.20
2022-11-17T09:15:12.557Z,5.20
2022-11-17T09:17:47.624Z,5.20
2022-11-17T09:20:16.657Z,5.20
2022-11-17T09:22:46.103Z,5.30
2022-11-17T09:25:16.166Z,5.30
2022-11-17T09:27:44.486Z,5.30
2022-11-17T09:30:14.405Z,5.30
2022-11-17T09:32:44.003Z,5.30
2022-11-17T09:35:12.258Z,5.30
2022-11-17T09:37:40.865Z,5.30
2022-11-17T09:40:14.238Z,5.40
2022-11-17T09:42:43.172Z,5.40
2022-11-17T09:45:18.529Z,5.40
2022-11-17T09:48:06.959Z,5.50
2022-11-17T09:50:42.120Z,5.50
2022-11-17T09:53:20.525Z,5.50
2022-11-17T09:55:52.226Z,5.50
2022-11-17T09:58:32.671Z,5.50
2022-11-17T10:01:04.180Z,5.60
2022-11-17T10:03:40.323Z,5.60
2022-11-17T10:06:17.036Z,5.60
2022-11-17T10:08:53.283Z,5.60
2022-11-17T10:11:33.535Z,5.70
2022-11-17T10:14:13.649Z,5.80
2022-11-17T10:16:44.601Z,5.90
2022-11-17T10:19:18.151Z,5.90
2022-11-17T10:21:49.089Z,5.90
2022-11-17T10:24:36.277Z,5.90
2022-11-17T10:27:06.493Z,5.90
2022-11-17T10:29:35.094Z,6.00
2022-11-17T10:32:09.420Z,5.90
2022-11-17T10:34:41.590Z,5.90
2022-11-17T10:37:25.944Z,5.90
2022-11-17T10:40:10.464Z,5.90
2022-11-17T10:42:39.632Z,5.90
2022-11-17T10:45:17.873Z,5.90
2022-11-17T10:47:46.940Z,5.80
2022-11-17T10:50:23.424Z,5.90
2022-11-17T10:52:53.232Z,5.90
2022-11-17T10:55:27.475Z,5.80
2022-11-17T10:57:59.853Z,5.80
2022-11-17T11:00:33.592Z,5.80
2022-11-17T11:03:08.346Z,5.80
2022-11-17T11:05:39.015Z,5.80
2022-11-17T11:08:19.772Z,5.90
2022-11-17T11:10:51.590Z,5.80
2022-11-17T11:13:28.547Z,5.80
2022-11-17T11:15:57.496Z,5.80
2022-11-17T11:18:28.936Z,5.70
2022-11-17T11:21:07.931Z,5.80
2022-11-17T11:23:50.365Z,5.80
2022-11-17T11:26:35.874Z,5.70
2022-11-17T11:29:18.967Z,5.70
2022-11-17T11:32:01.476Z,5.70
2022-11-17T11:34:47.310Z,5.70
2022-11-17T11:37:17.936Z,5.60
2022-11-17T11:40:04.377Z,5.60
2022-11-17T11:42:51.850Z,5.70
2022-11-17T11:45:35.902Z,5.70
2022-11-17T11:48:21.318Z,5.70
2022-11-17T11:50:54.789Z,5.70
2022-11-17T11:53:34.560Z,5.70
2022-11-17T11:56:13.269Z,5.80
2022-11-17T11:58:47.616Z,5.80
2022-11-17T12:01:18.850Z,5.80
2022-11-17T12:03:52.632Z,5.90
2022-11-17T12:06:42.471Z,6.00
2022-11-17T12:09:41.562Z,6.00
2022-11-17T12:12:14.783Z,6.00
2022-11-17T12:15:27.347Z,5.90
2022-11-17T12:18:01.064Z,5.90
2022-11-17T12:20:59.524Z,5.90
2022-11-17T12:23:50.060Z,6.00
2022-11-17T12:26:25.568Z,6.00
2022-11-17T12:29:25.569Z,5.90
2022-11-17T12:31:55.005Z,6.00
2022-11-17T12:34:26.911Z,6.00
2022-11-17T12:37:23.120Z,6.10
2022-11-17T12:40:06.378Z,6.10
2022-11-17T12:42:37.219Z,6.10
2022-11-17T12:45:10.285Z,6.20
2022-11-17T12:47:40.502Z,6.30
2022-11-17T12:50:43.003Z,6.30
2022-11-17T12:53:36.813Z,6.50
2022-11-17T12:56:32.529Z,6.50
2022-11-17T12:59:13.143Z,6.60
2022-11-17T13:01:52.334Z,6.70
2022-11-17T13:04:24.759Z,6.60
2022-11-17T13:07:01.067Z,6.60
2022-11-17T13:09:30.839Z,6.70
2022-11-17T13:12:04.241Z,6.60
2022-11-17T13:14:35.037Z,6.60
2022-11-17T13:17:04.717Z,6.60
2022-11-17T13:19:39.294Z,6.60
2022-11-17T13:22:15.942Z,6.60
2022-11-17T13:24:45.945Z,6.60
2022-11-17T13:27:23.182Z,6.60
2022-11-17T13:29:54.102Z,6.70
2022-11-17T13:32:24.086Z,6.70
2022-11-17T13:34:56.362Z,6.70
2022-11-17T13:37:26.781Z,6.80
2022-11-17T13:40:00.393Z,6.80
2022-11-17T13:42:32.240Z,6.70
2022-11-17T13:45:04.496Z,6.80
2022-11-17T13:47:46.544Z,6.80
2022-11-17T13:50:37.011Z,6.80
2022-11-17T13:53:17.774Z,6.90
2022-11-17T13:55:48.169Z,6.90
2022-11-17T13:58:36.129Z,6.90
2022-11-17T14:01:05.989Z,6.80
2022-11-17T14:03:39.370Z,6.80
2022-11-17T14:06:09.487Z,6.90
2022-11-17T14:08:40.828Z,6.90
2022-11-17T14:11:22.468Z,6.90
2022-11-17T14:13:52.676Z,6.90
2022-11-17T14:16:28.241Z,6.90
2022-11-17T14:19:02.104Z,6.80
2022-11-17T14:21:32.407Z,6.80
2022-11-17T14:24:06.813Z,6.80
2022-11-17T14:26:35.110Z,6.80
2022-11-17T14:29:03.767Z,6.70
2022-11-17T14:31:33.693Z,6.70
2022-11-17T14:34:02.697Z,6.80
2022-11-17T14:36:32.910Z,6.90
2022-11-17T14:39:02.839Z,6.90
2022-11-17T14:41:31.831Z,6.80
2022-11-17T14:44:00.006Z,6.70
2022-11-17T14:46:29.096Z,6.80
2022-11-17T14:48:59.590Z,6.70
2022-11-17T14:51:27.819Z,6.70
2022-11-17T14:53:56.164Z,6.70
2022-11-17T14:56:25.690Z,6.70
2022-11-17T14:58:58.781Z,6.80
2022-11-17T15:01:30.427Z,6.80
2022-11-17T15:04:20.701Z,6.80
2022-11-17T15:06:50.870Z,6.80
2022-11-17T15:09:20.507Z,6.90
2022-11-17T15:11:49.414Z,6.90
2022-11-17T15:14:18.213Z,6.90
2022-11-17T15:16:46.867Z,6.90
2022-11-17T15:19:17.096Z,6.90
2022-11-17T15:21:46.267Z,6.90
2022-11-17T15:24:15.137Z,6.90
2022-11-17T15:26:45.533Z,6.90
2022-11-17T15:29:16.039Z,6.90
2022-11-17T15:31:44.533Z,6.90
2022-11-17T15:34:19.876Z,6.90
2022-11-17T15:36:51.292Z,6.90
2022-11-17T15:39:20.927Z,6.90
2022-11-17T15:41:50.740Z,6.90
2022-11-17T15:44:19.851Z,7.10
2022-11-17T15:46:48.268Z,7.00
2022-11-17T15:49:17.299Z,6.90
2022-11-17T15:51:45.881Z,6.90
2022-11-17T15:54:20.249Z,6.90
2022-11-17T15:56:49.309Z,6.90
2022-11-17T15:59:17.966Z,6.90
2022-11-17T16:01:52.579Z,6.90
2022-11-17T16:04:21.575Z,7.00
2022-11-17T16:06:50.524Z,6.90
2022-11-17T16:09:21.117Z,6.90
2022-11-17T16:11:49.291Z,6.90
2022-11-17T16:14:17.574Z,7.00
2022-11-17T16:16:47.936Z,7.00
2022-11-17T16:19:16.339Z,7.10
2022-11-17T16:21:44.806Z,7.10
2022-11-17T16:24:13.268Z,7.20
2022-11-17T16:26:44.541Z,7.20
2022-11-17T16:29:13.192Z,7.20
2022-11-17T16:31:42.285Z,7.30
2022-11-17T16:34:13.834Z,7.30
2022-11-17T16:36:44.575Z,7.30
2022-11-17T16:39:15.400Z,7.30
2022-11-17T16:41:46.535Z,7.30
2022-11-17T16:44:17.488Z,7.40
2022-11-17T16:46:47.826Z,7.40
2022-11-17T16:49:17.779Z,7.30
2022-11-17T16:51:51.568Z,7.30
2022-11-17T16:54:20.441Z,7.30
2022-11-17T16:56:50.033Z,7.30
2022-11-17T16:59:18.540Z,7.30
2022-11-17T17:01:47.669Z,7.30
2022-11-17T17:04:15.921Z,7.30
2022-11-17T17:06:45.925Z,7.30
2022-11-17T17:09:15.756Z,7.30
2022-11-17T17:11:44.697Z,7.20
2022-11-17T17:14:16.121Z,7.20
2022-11-17T17:16:45.429Z,7.10
2022-11-17T17:19:16.455Z,7.10
2022-11-17T17:21:45.569Z,7.00
2022-11-17T17:24:14.300Z,6.90
2022-11-17T17:26:43.298Z,6.80
2022-11-17T17:29:12.045Z,6.70
2022-11-17T17:31:43.584Z,6.70
2022-11-17T17:34:13.787Z,6.60
2022-11-17T17:36:41.970Z,6.60
2022-11-17T17:39:15.721Z,6.60
2022-11-17T17:41:45.892Z,6.50
2022-11-17T17:44:17.201Z,6.50
2022-11-17T17:46:48.677Z,6.50
2022-11-17T17:49:18.904Z,6.40
2022-11-17T17:51:48.132Z,6.30
2022-11-17T17:54:19.851Z,6.10
2022-11-17T17:56:48.811Z,6.10
2022-11-17T17:59:19.038Z,6.00
2022-11-17T18:01:49.876Z,6.00
2022-11-17T18:04:18.087Z,6.10
2022-11-17T18:06:48.222Z,6.10
2022-11-17T18:09:19.383Z,5.90
2022-11-17T18:11:49.896Z,6.00
2022-11-17T18:14:20.507Z,6.10
2022-11-17T18:16:50.195Z,6.10
2022-11-17T18:19:19.570Z,6.30
2022-11-17T18:21:48.465Z,6.20
2022-11-17T18:24:19.495Z,6.30
2022-11-17T18:26:47.770Z,6.30
2022-11-17T18:29:18.925Z,6.30
2022-11-17T18:31:49.589Z,6.40
2022-11-17T18:34:20.990Z,6.50
2022-11-17T18:36:50.269Z,6.60
2022-11-17T18:39:18.812Z,6.70
2022-11-17T18:41:50.285Z,6.70
2022-11-17T18:44:19.912Z,6.80
2022-11-17T18:46:50.008Z,6.80
2022-11-17T18:49:18.609Z,6.90
2022-11-17T18:51:48.404Z,6.90
2022-11-17T18:54:16.974Z,6.90
2022-11-17T18:56:45.308Z,6.90
2022-11-17T18:59:14.879Z,6.90
2022-11-17T19:01:44.155Z,6.90
2022-11-17T19:04:15.565Z,6.90
2022-11-17T19:06:43.918Z,6.80
2022-11-17T19:09:13.433Z,6.60
2022-11-17T19:11:42.073Z,6.40
2022-11-17T19:14:10.825Z,6.30
2022-11-17T19:16:44.424Z,6.10
2022-11-17T19:19:15.531Z,5.80
2022-11-17T19:21:44.397Z,5.70
2022-11-17T19:24:13.710Z,5.60
2022-11-17T19:26:42.744Z,5.60
2022-11-17T19:29:17.107Z,5.60
2022-11-17T19:31:46.347Z,5.70
2022-11-17T19:34:16.696Z,5.80
2022-11-17T19:36:45.485Z,5.80
2022-11-17T19:39:14.942Z,5.70
2022-11-17T19:41:44.885Z,5.60
2022-11-17T19:44:13.306Z,5.60
2022-11-17T19:46:42.586Z,5.60
2022-11-17T19:49:14.072Z,5.50
2022-11-17T19:51:43.858Z,5.50
2022-11-17T19:54:13.874Z,5.50
2022-11-17T19:56:42.200Z,5.30
2022-11-17T19:59:15.673Z,5.30
2022-11-17T20:01:45.746Z,5.30
2022-11-17T20:04:14.031Z,5.10
2022-11-17T20:06:43.678Z,5.00
2022-11-17T20:09:14.085Z,4.90
2022-11-17T20:11:43.981Z,4.90
2022-11-17T20:14:14.310Z,4.90
2022-11-17T20:16:42.948Z,5.00
2022-11-17T20:19:11.539Z,4.90
2022-11-17T20:21:44.472Z,4.60
2022-11-17T20:24:12.751Z,4.80
2022-11-17T20:26:43.002Z,4.80
2022-11-17T20:29:11.359Z,4.70
2022-11-17T20:31:39.526Z,4.90
2022-11-17T20:34:07.974Z,5.10
2022-11-17T20:36:36.632Z,5.30
2022-11-17T20:39:07.989Z,5.60
2022-11-17T20:41:36.373Z,5.80
2022-11-17T20:44:05.112Z,5.90
2022-11-17T20:46:33.493Z,5.90
2022-11-17T20:49:01.670Z,6.00
2022-11-17T20:51:29.970Z,6.10
2022-11-17T20:53:58.268Z,6.10
2022-11-17T20:56:27.845Z,6.10
2022-11-17T20:58:56.058Z,6.20
2022-11-17T21:01:24.564Z,6.20
2022-11-17T21:03:53.777Z,6.20
2022-11-17T21:06:23.374Z,6.30
2022-11-17T21:08:51.832Z,6.20
2022-11-17T21:11:39.169Z,6.20
2022-11-17T21:14:10.403Z,6.20
2022-11-17T21:16:41.714Z,6.20
2022-11-17T21:19:19.188Z,6.20
2022-11-17T21:21:59.379Z,6.30
2022-11-17T21:24:32.437Z,6.10
2022-11-17T21:27:03.037Z,6.10
2022-11-17T21:29:42.374Z,6.00
2022-11-17T21:32:15.625Z,6.10
2022-11-17T21:34:48.633Z,6.20
2022-11-17T21:37:21.780Z,6.10
2022-11-17T21:39:55.395Z,6.40
2022-11-17T21:42:32.793Z,6.60
2022-11-17T21:45:06.973Z,6.90
2022-11-17T21:47:58.011Z,6.90
2022-11-17T21:50:34.028Z,6.80
2022-11-17T21:53:04.664Z,6.70
2022-11-17T21:55:36.838Z,6.60
2022-11-17T21:58:09.518Z,6.60
2022-11-17T22:00:53.257Z,6.40
2022-11-17T22:03:29.882Z,6.30
2022-11-17T22:06:10.619Z,6.30
2022-11-17T22:08:47.276Z,6.20
2022-11-17T22:11:41.769Z,6.30
2022-11-17T22:14:22.802Z,6.20
2022-11-17T22:16:57.669Z,6.10
2022-11-17T22:19:30.294Z,6.10
2022-11-17T22:21:59.676Z,6.10
2022-11-17T22:24:49.619Z,6.10
2022-11-17T22:27:38.490Z,5.90
2022-11-17T22:30:09.634Z,5.90
2022-11-17T22:32:57.106Z,6.00
2022-11-17T22:35:33.688Z,5.90
2022-11-17T22:38:04.504Z,5.90
2022-11-17T22:40:34.821Z,5.90
2022-11-17T22:43:05.679Z,6.10
2022-11-17T22:45:50.039Z,6.10
2022-11-17T22:48:24.025Z,6.10
2022-11-17T22:51:01.635Z,6.10
2022-11-17T22:53:30.933Z,6.10
2022-11-17T22:56:04.084Z,6.10
2022-11-17T22:58:37.031Z,6.20
2022-11-17T23:01:17.801Z,6.20
2022-11-17T23:03:48.647Z,6.00
2022-11-17T23:06:17.076Z,6.00
2022-11-17T23:08:45.318Z,6.00
2022-11-17T23:11:36.075Z,6.10
2022-11-17T23:14:02.054Z,6.10
2022-11-17T23:16:30.284Z,6.20
2022-11-17T23:19:00.137Z,6.10
2022-11-17T23:21:29.298Z,6.00
2022-11-17T23:23:57.732Z,5.90
2022-11-17T23:26:28.783Z,5.80
2022-11-17T23:28:57.989Z,5.90
2022-11-17T23:31:27.827Z,6.10
2022-11-17T23:33:56.240Z,6.10
2022-11-17T23:36:26.188Z,6.00
2022-11-17T23:38:56.384Z,6.10
2022-11-17T23:41:24.777Z,6.10
2022-11-17T23:43:54.721Z,6.10
2022-11-17T23:46:24.357Z,6.10
2022-11-17T23:48:52.577Z,6.20
2022-11-17T23:51:23.639Z,6.40
2022-11-17T23:53:53.680Z,6.50
2022-11-17T23:56:22.568Z,6.50
2022-11-17T23:58:51.636Z,6.50
